Time;durP1;ratioP1;P1;durP2;ratioP2;P2;SDS_P1;SDS_P2;PMS_P1;PMS_P2;Temp;Humidity;BMP_temperature;BMP_pressure;BME280_temperature;BME280_humidity;BME280_pressure;Samples;Min_cycle;Max_cycle;Signal;HPM_P1;HPM_P2
2022/11/17 00:03:30;;;;;;;8.73;4.70;;;11.40;99.90;;;;;;10437379;28;20128;-62
2022/11/17 00:08:32;;;;;;;10.85;4.70;;;11.30;99.90;;;;;;10436333;28;20036;-61
2022/11/17 00:24:15;;;;;;;9.95;4.53;;;11.30;99.90;;;;;;10443650;28;20036;-63
2022/11/17 00:29:16;;;;;;;7.15;4.53;;;11.30;99.90;;;;;;10434866;28;20099;-61
2022/11/17 00:34:20;;;;;;;7.50;4.30;;;11.30;99.90;;;;;;10436448;28;20512;-62
2022/11/17 00:39:22;;;;;;;8.40;5.35;;;11.30;99.90;;;;;;10449562;28;20033;-62
2022/11/17 00:44:23;;;;;;;11.98;5.00;;;11.30;99.90;;;;;;10442652;28;20557;-62
2022/11/17 00:49:24;;;;;;;8.48;4.65;;;11.40;99.90;;;;;;10443035;28;20021;-61
2022/11/17 00:54:25;;;;;;;8.48;5.13;;;11.40;99.90;;;;;;10456525;28;20470;-62
2022/11/17 00:59:25;;;;;;;7.70;4.40;;;11.30;99.90;;;;;;10445838;28;20051;-62
2022/11/17 01:04:26;;;;;;;8.18;4.57;;;11.40;99.90;;;;;;10448377;28;20499;-62
2022/11/17 01:09:26;;;;;;;9.13;4.57;;;11.30;99.90;;;;;;10441890;28;20608;-61
2022/11/17 01:14:29;;;;;;;7.43;4.05;;;11.30;99.90;;;;;;10439713;28;20028;-62
2022/11/17 01:19:29;;;;;;;7.10;4.60;;;11.30;99.90;;;;;;10432217;28;20044;-65
2022/11/17 01:24:30;;;;;;;7.35;4.50;;;11.30;99.90;;;;;;10435771;28;20021;-62
2022/11/17 01:29:31;;;;;;;5.93;4.22;;;11.30;99.90;;;;;;10449660;28;20021;-62
2022/11/17 01:34:31;;;;;;;8.80;4.57;;;11.30;99.90;;;;;;10447167;28;20029;-62
2022/11/17 01:39:32;;;;;;;7.50;4.25;;;11.30;99.90;;;;;;10457814;28;20389;-62
2022/11/17 01:45:02;;;;;;;11.18;5.38;;;11.40;99.90;;;;;;10448766;28;20036;-64
2022/11/17 01:50:08;;;;;;;7.72;4.45;;;11.40;99.90;;;;;;10448671;28;20025;-62
2022/11/17 01:55:10;;;;;;;7.80;4.55;;;11.40;99.90;;;;;;10448757;28;20028;-64
2022/11/17 02:00:12;;;;;;;9.13;4.47;;;11.30;99.90;;;;;;10453401;28;20185;-62
2022/11/17 02:05:23;;;;;;;6.82;3.97;;;11.40;99.90;;;;;;10455965;28;20048;-62
2022/11/17 02:10:24;;;;;;;7.35;4.03;;;11.30;99.90;;;;;;10453114;28;20033;-62
2022/11/17 02:15:26;;;;;;;7.70;4.30;;;11.30;99.90;;;;;;10453096;28;20033;-61
2022/11/17 02:20:40;;;;;;;8.73;4.28;;;11.30;99.90;;;;;;10447529;28;20045;-62
2022/11/17 02:26:05;;;;;;;10.55;4.22;;;11.30;99.90;;;;;;10447801;28;20042;-62
2022/11/17 02:31:15;;;;;;;9.70;4.47;;;11.30;99.90;;;;;;10432641;28;20509;-62
2022/11/17 02:36:19;;;;;;;7.45;3.85;;;11.40;99.90;;;;;;10446876;28;20040;-62
2022/11/17 02:41:29;;;;;;;6.32;3.95;;;11.30;99.90;;;;;;10453604;28;20025;-62
2022/11/17 02:47:05;;;;;;;7.13;3.78;;;11.30;99.90;;;;;;10446967;28;20033;-63
2022/11/17 02:52:07;;;;;;;5.60;3.38;;;11.30;99.90;;;;;;10413077;28;20087;-62
2022/11/17 02:57:30;;;;;;;6.03;3.50;;;11.40;99.90;;;;;;10446922;28;20017;-62
2022/11/17 03:02:36;;;;;;;9.15;3.67;;;11.30;99.90;;;;;;10441424;28;20418;-62
2022/11/17 03:07:52;;;;;;;7.30;3.55;;;11.30;99.90;;;;;;10437956;28;20557;-62
2022/11/17 03:12:56;;;;;;;4.78;3.35;;;11.30;99.90;;;;;;10454204;28;20193;-62
2022/11/17 03:18:28;;;;;;;7.70;4.00;;;11.30;99.90;;;;;;10445718;28;20571;-61
2022/11/17 03:23:55;;;;;;;5.10;3.60;;;11.30;99.90;;;;;;10434991;28;20018;-65
2022/11/17 03:28:58;;;;;;;7.97;4.15;;;11.30;99.90;;;;;;10443949;28;20091;-62
2022/11/17 03:34:02;;;;;;;7.38;4.05;;;11.30;99.90;;;;;;10444653;28;20500;-68
2022/11/17 03:39:35;;;;;;;7.40;4.00;;;11.30;99.90;;;;;;10451749;28;20111;-62
2022/11/17 03:44:40;;;;;;;8.07;3.88;;;11.30;99.90;;;;;;10420541;28;20119;-66
2022/11/17 03:49:45;;;;;;;6.95;3.50;;;11.30;99.90;;;;;;10449223;28;20017;-62
2022/11/17 03:54:45;;;;;;;6.30;3.60;;;11.30;99.90;;;;;;10432513;28;20022;-63
2022/11/17 03:59:49;;;;;;;8.35;3.85;;;11.30;99.90;;;;;;10443389;28;20032;-62
2022/11/17 04:05:05;;;;;;;8.07;3.78;;;11.30;99.90;;;;;;10443040;28;20064;-62
2022/11/17 04:10:08;;;;;;;6.70;3.40;;;11.30;99.90;;;;;;10446374;28;20037;-65
2022/11/17 04:20:35;;;;;;;5.85;3.10;;;11.30;99.90;;;;;;10426594;28;20052;-62
2022/11/17 04:31:12;;;;;;;6.22;3.50;;;11.30;99.90;;;;;;10428643;28;20393;-61
2022/11/17 04:36:16;;;;;;;4.93;3.17;;;11.30;99.90;;;;;;10428844;28;20052;-62
2022/11/17 04:46:39;;;;;;;6.55;3.83;;;11.20;99.90;;;;;;10443492;28;20029;-63
2022/11/17 04:51:40;;;;;;;5.03;3.20;;;11.30;99.90;;;;;;10429503;28;20303;-64
2022/11/17 04:56:40;;;;;;;4.38;2.72;;;11.30;99.90;;;;;;10451734;28;20366;-62
2022/11/17 05:01:42;;;;;;;4.63;3.03;;;11.30;99.90;;;;;;10451389;28;20045;-64
2022/11/17 05:06:43;;;;;;;4.32;2.95;;;11.30;99.90;;;;;;10441261;28;20025;-63
2022/11/17 05:17:08;;;;;;;4.55;2.72;;;11.30;99.90;;;;;;10446183;28;20106;-62
2022/11/17 05:27:29;;;;;;;6.22;2.90;;;11.30;99.90;;;;;;10436085;28;20112;-62
2022/11/17 05:32:30;;;;;;;4.88;2.70;;;11.30;99.90;;;;;;10443071;28;20021;-62
2022/11/17 05:37:31;;;;;;;6.68;3.08;;;11.30;99.90;;;;;;10449687;28;20029;-62
2022/11/17 05:42:32;;;;;;;4.50;2.83;;;11.20;99.90;;;;;;10442293;28;20013;-62
2022/11/17 05:47:33;;;;;;;5.35;3.03;;;11.20;99.90;;;;;;10434845;28;20040;-62
2022/11/17 05:52:34;;;;;;;4.45;2.80;;;11.20;99.90;;;;;;10434482;28;20031;-62
2022/11/17 05:57:34;;;;;;;4.75;2.85;;;11.20;99.90;;;;;;10430895;28;20342;-61
2022/11/17 06:02:49;;;;;;;6.65;2.90;;;11.20;99.90;;;;;;10453358;28;20047;-62
2022/11/17 06:07:50;;;;;;;7.68;3.15;;;11.20;99.90;;;;;;10432508;28;20036;-61
2022/11/17 06:12:51;;;;;;;4.50;2.67;;;11.20;99.90;;;;;;10428017;28;20021;-63
2022/11/17 06:18:14;;;;;;;6.65;2.70;;;11.20;99.90;;;;;;10438817;28;20084;-62
2022/11/17 06:23:17;;;;;;;3.35;2.30;;;11.20;99.90;;;;;;10445026;28;20033;-62
2022/11/17 06:28:20;;;;;;;4.10;2.38;;;11.20;99.90;;;;;;10447075;28;20028;-66
2022/11/17 06:33:21;;;;;;;5.07;2.78;;;11.20;99.90;;;;;;10435359;28;20087;-61
2022/11/17 06:38:22;;;;;;;4.10;2.38;;;11.20;99.90;;;;;;10464941;28;20089;-62
2022/11/17 06:43:23;;;;;;;3.05;1.90;;;11.20;99.90;;;;;;10407296;28;20025;-66
2022/11/17 06:48:26;;;;;;;4.65;2.60;;;11.20;99.90;;;;;;10411670;28;20032;-61
2022/11/17 06:53:27;;;;;;;3.55;2.15;;;11.20;99.90;;;;;;10445993;28;20567;-63
2022/11/17 06:58:28;;;;;;;4.10;2.40;;;11.30;99.90;;;;;;10432657;28;20037;-62
2022/11/17 07:03:29;;;;;;;5.28;2.75;;;11.20;99.90;;;;;;10441408;28;20269;-62
2022/11/17 07:08:30;;;;;;;4.70;2.58;;;11.20;99.90;;;;;;10446228;28;20029;-61
2022/11/17 07:13:32;;;;;;;3.17;2.22;;;11.20;99.90;;;;;;10446832;28;20037;-61
2022/11/17 07:18:34;;;;;;;3.95;2.75;;;11.20;99.90;;;;;;10440160;28;20053;-62
2022/11/17 07:23:35;;;;;;;3.65;2.47;;;11.20;99.90;;;;;;10438808;28;20013;-62
2022/11/17 07:28:36;;;;;;;3.92;2.40;;;11.20;99.90;;;;;;10444865;28;20112;-62
2022/11/17 07:33:37;;;;;;;3.58;2.25;;;11.20;99.90;;;;;;10444919;28;20031;-62
2022/11/17 07:38:38;;;;;;;2.80;1.90;;;11.20;99.90;;;;;;10432847;28;20552;-62
2022/11/17 07:43:39;;;;;;;3.83;2.55;;;11.20;99.90;;;;;;10424753;28;20022;-66
2022/11/17 07:48:42;;;;;;;4.22;3.17;;;11.20;99.90;;;;;;10434552;28;20040;-61
2022/11/17 07:53:42;;;;;;;3.63;2.45;;;11.20;99.90;;;;;;10432950;28;20021;-60
2022/11/17 07:58:43;;;;;;;4.65;2.85;;;11.20;99.90;;;;;;10444855;28;20044;-60
2022/11/17 08:03:44;;;;;;;4.25;2.50;;;11.20;99.90;;;;;;10445440;28;20025;-63
2022/11/17 08:08:47;;;;;;;4.80;2.75;;;11.20;99.90;;;;;;10425954;28;20033;-61
2022/11/17 08:13:49;;;;;;;4.32;2.30;;;11.20;99.90;;;;;;10419698;28;20442;-64
2022/11/17 08:18:50;;;;;;;3.88;2.45;;;11.20;99.90;;;;;;10420067;28;20183;-60
2022/11/17 08:23:53;;;;;;;6.65;2.95;;;11.20;99.90;;;;;;10411367;28;20073;-61
2022/11/17 08:28:55;;;;;;;4.18;2.47;;;11.20;99.90;;;;;;10410615;28;20195;-60
2022/11/17 08:33:56;;;;;;;3.38;2.13;;;11.20;99.90;;;;;;10407912;28;20025;-61
2022/11/17 08:38:57;;;;;;;4.38;2.70;;;11.20;99.90;;;;;;10383443;28;20041;-61
2022/11/17 08:43:58;;;;;;;4.65;2.58;;;11.20;99.90;;;;;;10336633;28;20025;-61
2022/11/17 08:48:59;;;;;;;3.70;2.50;;;11.20;99.90;;;;;;10348535;28;20037;-61
2022/11/17 08:54:00;;;;;;;5.45;2.65;;;11.20;99.90;;;;;;10373829;28;20703;-61
2022/11/17 08:59:01;;;;;;;3.78;2.30;;;11.20;99.90;;;;;;10357640;28;20036;-61
2022/11/17 09:04:01;;;;;;;5.18;2.60;;;11.20;99.90;;;;;;10327321;28;20140;-62
2022/11/17 09:09:02;;;;;;;4.30;2.50;;;11.20;99.90;;;;;;10331956;28;20105;-61
2022/11/17 09:14:06;;;;;;;3.13;2.35;;;11.20;99.90;;;;;;10328743;28;20017;-61
2022/11/17 09:19:06;;;;;;;4.20;2.05;;;11.30;99.90;;;;;;10317371;28;20056;-61
2022/11/17 09:24:07;;;;;;;4.97;2.53;;;11.20;99.90;;;;;;10330133;28;20025;-61
2022/11/17 09:29:08;;;;;;;4.30;2.30;;;11.20;99.90;;;;;;10351818;28;20102;-62
2022/11/17 09:34:09;;;;;;;5.05;2.58;;;11.20;99.90;;;;;;10356237;28;20052;-62
2022/11/17 09:39:10;;;;;;;3.85;2.40;;;11.20;99.90;;;;;;10361258;28;20044;-68
2022/11/17 09:44:29;;;;;;;5.25;2.42;;;11.30;99.90;;;;;;10360552;28;20505;-62
2022/11/17 09:49:47;;;;;;;4.70;2.42;;;11.30;99.90;;;;;;10355770;28;20358;-61
2022/11/17 09:55:08;;;;;;;3.47;2.20;;;11.30;99.90;;;;;;10361524;28;20044;-62
2022/11/17 10:00:18;;;;;;;4.72;2.20;;;11.30;99.90;;;;;;10343501;28;20493;-61
2022/11/17 10:05:33;;;;;;;3.50;2.15;;;11.30;99.90;;;;;;10339169;28;20040;-65
2022/11/17 10:10:49;;;;;;;5.13;2.40;;;11.40;99.90;;;;;;10352155;28;20068;-62
2022/11/17 10:16:06;;;;;;;4.85;2.45;;;11.40;99.90;;;;;;10348501;28;20623;-62
2022/11/17 10:21:08;;;;;;;3.72;2.17;;;11.40;99.90;;;;;;10355803;28;20595;-61
2022/11/17 10:26:11;;;;;;;3.25;1.95;;;11.40;99.90;;;;;;10361009;28;20025;-62
2022/11/17 10:31:18;;;;;;;6.80;2.40;;;11.40;99.90;;;;;;10354893;28;20519;-62
2022/11/17 10:36:28;;;;;;;3.05;1.92;;;11.40;99.90;;;;;;10351971;28;20136;-61
2022/11/17 10:41:41;;;;;;;2.67;1.90;;;11.40;99.90;;;;;;10352662;28;20188;-62
2022/11/17 10:46:56;;;;;;;2.92;1.88;;;11.40;99.90;;;;;;10329049;28;20063;-62
2022/11/17 10:52:13;;;;;;;3.00;2.00;;;11.40;99.90;;;;;;10335504;28;20761;-62
2022/11/17 10:57:22;;;;;;;3.45;2.05;;;11.40;99.90;;;;;;10336955;28;20029;-62
2022/11/17 11:02:31;;;;;;;1.95;1.48;;;11.40;99.90;;;;;;10352445;28;20525;-62
2022/11/17 11:07:31;;;;;;;2.03;1.40;;;11.50;99.90;;;;;;10346983;28;20032;-62
2022/11/17 11:12:42;;;;;;;1.55;1.13;;;11.50;99.90;;;;;;10351622;28;20295;-62
2022/11/17 11:17:43;;;;;;;2.40;1.20;;;11.50;99.90;;;;;;10354276;28;20063;-62
2022/11/17 11:23:04;;;;;;;3.17;1.30;;;11.50;99.90;;;;;;10353516;28;20293;-62
2022/11/17 11:28:32;;;;;;;1.13;1.00;;;11.50;99.90;;;;;;10365802;28;20098;-62
2022/11/17 11:33:43;;;;;;;1.73;1.10;;;11.50;99.90;;;;;;10356893;28;20068;-64
2022/11/17 11:38:56;;;;;;;1.92;0.88;;;11.50;99.90;;;;;;10352824;28;20639;-62
2022/11/17 11:44:15;;;;;;;2.33;1.00;;;11.50;99.90;;;;;;10357546;28;20029;-61
2022/11/17 11:49:38;;;;;;;1.48;0.80;;;11.60;99.90;;;;;;10350080;28;20577;-60
2022/11/17 11:54:54;;;;;;;3.22;0.80;;;11.60;99.90;;;;;;10342501;28;20216;-62
2022/11/17 12:00:00;;;;;;;1.17;0.70;;;11.60;99.90;;;;;;10346054;28;20394;-61
2022/11/17 12:05:00;;;;;;;1.55;0.82;;;11.60;99.90;;;;;;10343175;28;20369;-61
2022/11/17 12:10:29;;;;;;;1.20;0.68;;;11.60;99.90;;;;;;10351272;28;20687;-64
2022/11/17 12:15:34;;;;;;;1.60;0.68;;;11.60;99.90;;;;;;10338834;28;20029;-62
2022/11/17 12:20:38;;;;;;;3.30;0.75;;;11.60;99.90;;;;;;10348425;28;20231;-61
2022/11/17 12:25:45;;;;;;;1.20;0.60;;;12.10;99.90;;;;;;10345263;28;20021;-60
2022/11/17 12:30:46;;;;;;;0.60;0.43;;;11.60;99.90;;;;;;10356200;28;20454;-63
2022/11/17 12:36:35;;;;;;;3.50;0.90;;;11.60;99.90;;;;;;10341028;28;20037;-61
2022/11/17 12:41:48;;;;;;;1.38;0.60;;;11.60;99.90;;;;;;10304115;28;20049;-67
2022/11/17 12:46:59;;;;;;;3.70;1.27;;;11.60;99.90;;;;;;10343921;28;20484;-61
2022/11/17 12:52:05;;;;;;;2.25;0.63;;;11.60;99.90;;;;;;10314640;28;20060;-62
2022/11/17 12:57:33;;;;;;;1.40;0.55;;;11.60;99.90;;;;;;10345855;28;20028;-60
2022/11/17 13:02:37;;;;;;;2.67;0.82;;;11.70;99.90;;;;;;10355106;28;20049;-61
2022/11/17 13:07:37;;;;;;;1.85;0.75;;;11.70;99.90;;;;;;10356728;28;20361;-61
2022/11/17 13:12:38;;;;;;;1.02;0.70;;;11.60;99.90;;;;;;10315294;28;20021;-61
2022/11/17 13:17:42;;;;;;;2.40;0.80;;;11.60;99.90;;;;;;10355653;28;20052;-60
2022/11/17 13:23:17;;;;;;;2.67;0.80;;;11.60;99.90;;;;;;10345523;28;20564;-60
2022/11/17 13:28:45;;;;;;;1.77;0.93;;;11.60;99.90;;;;;;10359058;28;20068;-70
2022/11/17 13:34:14;;;;;;;3.08;0.80;;;11.60;99.90;;;;;;10348261;28;20608;-60
2022/11/17 13:39:16;;;;;;;10.98;1.17;;;11.70;99.90;;;;;;10335027;28;20828;-60
2022/11/17 13:44:21;;;;;;;6.20;1.10;;;11.90;99.90;;;;;;10342536;28;20394;-58
2022/11/17 13:49:36;;;;;;;4.43;1.13;;;11.70;99.90;;;;;;10361223;28;20071;-60
2022/11/17 13:54:42;;;;;;;5.10;1.20;;;11.70;99.90;;;;;;10349138;28;20166;-60
2022/11/17 13:59:43;;;;;;;7.60;1.20;;;11.70;99.90;;;;;;10358059;28;20049;-61
2022/11/17 14:05:13;;;;;;;2.72;1.15;;;11.70;99.90;;;;;;10330918;28;20138;-59
2022/11/17 14:10:20;;;;;;;3.22;0.90;;;11.70;99.90;;;;;;10355837;28;20332;-59
2022/11/17 14:15:25;;;;;;;5.05;1.20;;;11.70;99.90;;;;;;10348339;28;20025;-59
2022/11/17 14:20:34;;;;;;;2.45;0.70;;;11.60;99.90;;;;;;10348753;28;20609;-59
2022/11/17 14:25:41;;;;;;;1.20;0.52;;;11.70;99.90;;;;;;10356778;28;20899;-59
2022/11/17 14:30:41;;;;;;;5.28;0.90;;;11.60;99.90;;;;;;10358028;28;20130;-59
2022/11/17 14:35:44;;;;;;;3.20;0.68;;;11.70;99.90;;;;;;10361039;28;20025;-60
2022/11/17 14:40:46;;;;;;;3.58;0.77;;;11.70;99.90;;;;;;10355142;28;20577;-59
2022/11/17 14:45:48;;;;;;;1.95;0.70;;;11.60;99.90;;;;;;10357484;28;20033;-59
2022/11/17 14:50:56;;;;;;;1.67;0.55;;;11.40;99.90;;;;;;10360975;28;20338;-60
2022/11/17 14:55:57;;;;;;;1.70;0.68;;;11.70;99.90;;;;;;10344253;28;20384;-60
2022/11/17 15:00:57;;;;;;;1.95;0.70;;;11.60;99.90;;;;;;10358130;28;20479;-60
2022/11/17 15:05:58;;;;;;;0.90;0.55;;;11.50;99.90;;;;;;10340409;28;20214;-59
2022/11/17 15:10:59;;;;;;;1.30;0.75;;;11.60;99.90;;;;;;10327754;28;20039;-59
2022/11/17 15:16:04;;;;;;;1.38;0.60;;;11.60;99.90;;;;;;10336318;28;20136;-61
2022/11/17 15:21:09;;;;;;;1.38;0.70;;;11.60;99.90;;;;;;10323557;28;20474;-60
2022/11/17 15:26:12;;;;;;;3.85;0.90;;;11.60;99.90;;;;;;10324494;28;20117;-62
2022/11/17 15:31:16;;;;;;;1.58;0.80;;;11.60;99.90;;;;;;10335867;28;20154;-61
2022/11/17 15:36:19;;;;;;;3.75;0.70;;;11.60;99.90;;;;;;10336443;28;20095;-60
2022/11/17 15:41:20;;;;;;;2.42;0.43;;;11.60;99.90;;;;;;10334206;28;20098;-60
2022/11/17 15:46:21;;;;;;;1.65;0.50;;;11.50;99.90;;;;;;10320622;28;20067;-59
2022/11/17 15:51:26;;;;;;;5.38;0.73;;;11.60;99.90;;;;;;10316732;28;20029;-60
2022/11/17 15:56:29;;;;;;;4.75;0.80;;;11.60;99.90;;;;;;10312581;28;20445;-59
2022/11/17 16:01:32;;;;;;;1.92;0.50;;;11.50;99.90;;;;;;10344709;28;20341;-60
2022/11/17 16:06:35;;;;;;;3.58;0.80;;;11.60;99.90;;;;;;10395319;28;20026;-62
2022/11/17 16:11:36;;;;;;;3.20;1.42;;;11.60;99.90;;;;;;10406051;28;20033;-61
2022/11/17 16:16:37;;;;;;;1.50;0.80;;;11.60;99.90;;;;;;10412862;28;20052;-61
2022/11/17 16:21:38;;;;;;;4.90;0.70;;;11.60;99.90;;;;;;10415168;28;20036;-61
2022/11/17 16:26:39;;;;;;;1.52;0.57;;;11.60;99.90;;;;;;10408658;28;20034;-62
2022/11/17 16:31:40;;;;;;;2.92;0.77;;;11.60;99.90;;;;;;10406875;28;20037;-61
2022/11/17 16:36:42;;;;;;;1.90;0.70;;;11.50;99.90;;;;;;10402984;28;20044;-61
2022/11/17 16:41:44;;;;;;;1.77;0.80;;;11.50;99.90;;;;;;10404837;28;20098;-61
2022/11/17 16:46:47;;;;;;;1.95;0.77;;;11.50;99.90;;;;;;10405379;28;20017;-61
2022/11/17 16:51:50;;;;;;;2.65;0.60;;;11.50;99.90;;;;;;10409776;28;20498;-61
2022/11/17 16:56:50;;;;;;;1.77;0.85;;;11.50;99.90;;;;;;10402296;28;20128;-64
2022/11/17 17:01:51;;;;;;;1.80;0.70;;;11.50;99.90;;;;;;10410881;28;20043;-62
2022/11/17 17:06:52;;;;;;;1.02;0.73;;;11.40;99.90;;;;;;10421459;28;20062;-62
2022/11/17 17:11:53;;;;;;;1.83;0.80;;;11.50;99.90;;;;;;10434411;28;20021;-62
2022/11/17 17:16:54;;;;;;;2.17;0.65;;;11.50;99.90;;;;;;10438280;28;20051;-62
2022/11/17 17:21:55;;;;;;;0.95;0.70;;;11.50;99.90;;;;;;10438589;28;20044;-65
2022/11/17 17:26:55;;;;;;;3.05;0.70;;;11.50;99.90;;;;;;10436073;28;20482;-61
2022/11/17 17:31:56;;;;;;;2.38;0.68;;;11.50;99.90;;;;;;10438831;28;20043;-62
2022/11/17 17:36:57;;;;;;;2.22;0.70;;;11.50;99.90;;;;;;10406899;28;20048;-62
2022/11/17 17:41:57;;;;;;;3.67;0.82;;;11.50;99.90;;;;;;10403449;28;20092;-62
2022/11/17 17:46:58;;;;;;;1.25;0.85;;;11.50;99.90;;;;;;10422680;28;20474;-62
2022/11/17 17:51:59;;;;;;;2.67;0.70;;;11.50;99.90;;;;;;10417776;28;20042;-61
2022/11/17 17:57:00;;;;;;;2.17;0.93;;;11.50;99.90;;;;;;10403589;28;20025;-62
2022/11/17 18:02:01;;;;;;;1.50;0.98;;;11.50;99.90;;;;;;10418202;28;20476;-64
2022/11/17 18:07:02;;;;;;;5.40;1.33;;;11.50;99.90;;;;;;10453154;28;20485;-61
2022/11/17 18:12:03;;;;;;;4.20;1.17;;;11.60;99.90;;;;;;10431085;28;20087;-62
2022/11/17 18:17:04;;;;;;;5.07;1.60;;;11.60;99.90;;;;;;10431582;28;20442;-61
2022/11/17 18:22:05;;;;;;;4.38;1.27;;;11.60;99.90;;;;;;10439363;28;20029;-61
2022/11/17 18:27:06;;;;;;;1.67;1.10;;;11.60;99.90;;;;;;10413896;28;20548;-61
2022/11/17 18:32:07;;;;;;;2.80;1.30;;;11.60;99.90;;;;;;10426645;28;20020;-61
2022/11/17 18:37:08;;;;;;;2.13;1.20;;;11.60;99.90;;;;;;10420313;28;20100;-61
2022/11/17 18:42:09;;;;;;;1.48;1.02;;;11.60;99.90;;;;;;10421000;28;20045;-61
2022/11/17 18:47:10;;;;;;;1.60;1.30;;;11.60;99.90;;;;;;10420667;28;20025;-61
2022/11/17 18:52:11;;;;;;;2.78;1.27;;;11.60;99.90;;;;;;10418378;28;20028;-61
2022/11/17 18:57:12;;;;;;;3.47;1.23;;;11.60;99.90;;;;;;10441344;28;20044;-61
2022/11/17 19:02:13;;;;;;;2.92;1.30;;;11.60;99.90;;;;;;10424481;28;20401;-63
2022/11/17 19:07:14;;;;;;;2.03;1.10;;;11.60;99.90;;;;;;10456982;28;20331;-61
2022/11/17 19:12:17;;;;;;;4.15;1.70;;;11.50;99.90;;;;;;10459725;28;20028;-61
2022/11/17 19:17:18;;;;;;;1.85;1.00;;;11.50;99.90;;;;;;10455267;28;20393;-60
2022/11/17 19:22:19;;;;;;;1.75;1.10;;;11.50;99.90;;;;;;10450209;28;20138;-60
2022/11/17 19:27:20;;;;;;;4.25;0.95;;;11.50;99.90;;;;;;10443001;28;20029;-60
2022/11/17 19:32:21;;;;;;;3.25;1.33;;;11.50;99.90;;;;;;10455728;28;20090;-61
2022/11/17 19:37:22;;;;;;;2.85;1.27;;;11.50;99.90;;;;;;10447898;28;20032;-61
2022/11/17 19:42:22;;;;;;;2.88;1.40;;;11.50;99.90;;;;;;10456132;28;20481;-60
2022/11/17 19:47:23;;;;;;;2.67;1.15;;;11.50;99.90;;;;;;10443941;28;20524;-60
2022/11/17 19:52:25;;;;;;;1.77;1.10;;;11.50;99.90;;;;;;10441488;28;20029;-60
2022/11/17 19:57:26;;;;;;;1.83;1.10;;;11.50;99.90;;;;;;10440071;28;20021;-60
2022/11/17 20:02:27;;;;;;;2.05;1.30;;;11.50;99.90;;;;;;10439417;28;20036;-61
2022/11/17 20:07:28;;;;;;;2.15;1.42;;;11.50;99.90;;;;;;10437729;28;20032;-61
2022/11/17 20:12:33;;;;;;;2.53;1.38;;;11.50;99.90;;;;;;10443143;28;20041;-60
2022/11/17 20:17:34;;;;;;;2.97;1.35;;;11.40;99.90;;;;;;10445884;28;20412;-61
2022/11/17 20:22:35;;;;;;;2.30;0.95;;;11.40;99.90;;;;;;10443144;28;20035;-60
2022/11/17 20:27:35;;;;;;;4.75;1.20;;;11.40;99.90;;;;;;10414940;28;20574;-60
2022/11/17 20:32:36;;;;;;;2.53;1.13;;;11.40;99.90;;;;;;10433649;28;20021;-60
2022/11/17 20:37:37;;;;;;;3.20;0.93;;;11.40;99.90;;;;;;10434400;28;20024;-61
2022/11/17 20:42:38;;;;;;;2.67;1.15;;;11.40;99.90;;;;;;10425196;28;20029;-61
2022/11/17 20:47:38;;;;;;;2.00;1.00;;;11.40;99.90;;;;;;10442856;28;20504;-61
2022/11/17 20:52:40;;;;;;;5.00;1.75;;;11.40;99.90;;;;;;10439208;28;20029;-61
2022/11/17 20:57:41;;;;;;;1.92;1.08;;;11.40;99.90;;;;;;10429613;28;20017;-60
2022/11/17 21:02:41;;;;;;;3.60;1.27;;;11.40;99.90;;;;;;10440256;28;20032;-60
2022/11/17 21:07:42;;;;;;;3.35;1.27;;;11.40;99.90;;;;;;10442509;28;20036;-61
2022/11/17 21:12:43;;;;;;;4.00;1.38;;;11.40;99.90;;;;;;10438454;28;20112;-61
2022/11/17 21:23:03;;;;;;;2.25;1.40;;;11.30;99.90;;;;;;10429180;28;20129;-60
2022/11/17 21:28:04;;;;;;;3.13;1.15;;;11.30;99.90;;;;;;10433747;28;20532;-60
2022/11/17 21:33:04;;;;;;;1.52;1.02;;;11.30;99.90;;;;;;10435087;28;20401;-60
2022/11/17 21:38:05;;;;;;;2.33;1.55;;;11.30;99.90;;;;;;10452059;28;20028;-60
2022/11/17 21:43:06;;;;;;;3.72;1.30;;;11.30;99.90;;;;;;10455513;28;20036;-60
2022/11/17 21:48:07;;;;;;;1.95;1.17;;;11.30;99.90;;;;;;10438030;28;20116;-60
2022/11/17 21:53:08;;;;;;;3.35;1.05;;;11.30;99.90;;;;;;10437446;28;20021;-60
2022/11/17 21:58:08;;;;;;;3.33;1.15;;;11.20;99.90;;;;;;10443218;28;20091;-60
2022/11/17 22:03:09;;;;;;;1.00;0.85;;;11.20;99.90;;;;;;10436011;28;20035;-60
2022/11/17 22:08:15;;;;;;;3.65;1.33;;;11.20;99.90;;;;;;10449550;28;20357;-60
2022/11/17 22:13:16;;;;;;;1.95;1.00;;;11.20;99.90;;;;;;10457989;28;20544;-61
2022/11/17 22:18:16;;;;;;;3.45;1.35;;;11.20;99.90;;;;;;10458085;28;20095;-61
2022/11/17 22:23:18;;;;;;;1.50;1.00;;;11.20;99.90;;;;;;10438340;28;20049;-60
2022/11/17 22:28:20;;;;;;;4.25;1.35;;;11.20;99.90;;;;;;10411005;28;20022;-61
2022/11/17 22:33:21;;;;;;;3.67;1.40;;;11.20;99.90;;;;;;10411347;28;20104;-61
2022/11/17 22:38:22;;;;;;;1.77;1.27;;;11.20;99.90;;;;;;10413686;28;20042;-60
2022/11/17 22:43:23;;;;;;;2.35;1.25;;;11.20;99.90;;;;;;10438670;28;20100;-61
2022/11/17 22:48:24;;;;;;;1.63;1.00;;;11.20;99.90;;;;;;10443786;28;20039;-60
2022/11/17 22:53:26;;;;;;;2.10;1.40;;;11.10;99.90;;;;;;10439530;28;20022;-60
2022/11/17 22:58:27;;;;;;;3.95;1.20;;;11.10;99.90;;;;;;10431346;28;20124;-61
2022/11/17 23:03:27;;;;;;;3.08;1.20;;;11.10;99.90;;;;;;10429125;28;20060;-63
2022/11/17 23:08:28;;;;;;;2.60;1.35;;;11.10;99.90;;;;;;10454360;28;20506;-61
2022/11/17 23:13:29;;;;;;;3.83;1.33;;;11.10;99.90;;;;;;10435416;28;20095;-61
2022/11/17 23:18:30;;;;;;;2.95;1.20;;;11.10;99.90;;;;;;10429017;28;20060;-61
2022/11/17 23:23:35;;;;;;;3.05;1.30;;;11.10;99.90;;;;;;10445429;28;20437;-61
2022/11/17 23:28:40;;;;;;;2.47;1.30;;;11.10;99.90;;;;;;10458766;28;20135;-61
2022/11/17 23:33:45;;;;;;;2.42;1.30;;;11.10;99.90;;;;;;10445091;28;20381;-61
2022/11/17 23:38:47;;;;;;;1.85;1.33;;;11.10;99.90;;;;;;10444551;28;20555;-61
2022/11/17 23:43:52;;;;;;;2.50;1.40;;;11.10;99.90;;;;;;10446155;28;20021;-64
2022/11/17 23:48:55;;;;;;;3.53;1.63;;;11.10;99.90;;;;;;10458883;28;20093;-62
2022/11/17 23:54:00;;;;;;;2.70;1.55;;;11.10;99.90;;;;;;10444282;28;20033;-61
2022/11/17 23:59:00;;;;;;;3.45;1.30;;;11.20;99.90;;;;;;10443947;28;20686;-61
